Decoding for American and Canadian METARs and TAFs is not fully implemented.

Could not understand the following METAR

CYRB 201700Z 33008KT 15SM IC FEW070 M34/M38 A2999 RMK AC1 AC TR SLP172

TAF for Resolute Bay Airport

TAF CYRB 201138Z 2012/2112 VRB03KT P6SM IC FEW030 BECMG 2019/2021 35010KT BECMG 2101/2103 32015KT RMK NXT FCST BY 201800Z
Report created 20. mar 12:38

between 20. mar 13:00 - 21. mar 13:00

wind 3 knots from various directions
Resolute Bay Airport in Canada at 67m

Latest 5 airports